This is the latest recevied weather packets stored in our database for station/object OM4MO-10. If no packets are shown the sender has not sent any weather packets the latest 10 day(s).
| Time | Temp. | Humidity | Pressure | Rain* | Wind** | Luminosity | Snow |
|---|---|---|---|---|---|---|---|
| 1778087506 | 18.89° C | 76% | 1009.7 hPa | - | - | - | - |
| 1778086306 | 19.44° C | 68% | 1009.4 hPa | - | - | - | - |
| 1778085106 | 20.56° C | 64% | 1007.8 hPa | - | - | - | - |
| 1778083906 | 21.11° C | 59% | 1008.8 hPa | - | - | - | - |
| 1778082705 | 21.11° C | 59% | 1009 hPa | - | - | - | - |
| 1778081505 | 21.67° C | 55% | 1009.9 hPa | - | - | - | - |
| 1778080305 | 22.78° C | 55% | 1010.2 hPa | - | - | - | - |
| 1778079105 | 23.33° C | 53% | 1011.6 hPa | - | - | - | - |
| 1778077905 | 23.33° C | 50% | 1013.2 hPa | - | - | - | - |
| 1778076705 | 22.78° C | 54% | 1011.8 hPa | - | - | - | - |
| 1778075505 | 23.89° C | 52% | 1012.8 hPa | - | - | - | - |
| 1778074305 | 23.89° C | 52% | 1013.2 hPa | - | - | - | - |
| 1778073105 | 23.89° C | 58% | 1011.7 hPa | - | - | - | - |
| 1778071904 | 23.33° C | 59% | 1011.7 hPa | - | - | - | - |
| 1778070704 | 22.78° C | 56% | 1011.9 hPa | - | - | - | - |
| 1778069504 | 22.78° C | 58% | 1011.4 hPa | - | - | - | - |
| 1778068304 | 22.78° C | 55% | 1012.2 hPa | - | - | - | - |
| 1778067104 | 22.22° C | 56% | 1012.7 hPa | - | - | - | - |
| 1778065904 | 22.78° C | 55% | 1014.1 hPa | - | - | - | - |
| 1778064704 | 20.56° C | 67% | 1010.9 hPa | - | - | - | - |
| 1778063504 | 21.67° C | 62% | 1012.5 hPa | - | - | - | - |
| 1778062303 | 20.56° C | 75% | 1011.1 hPa | - | - | - | - |
| 1778061103 | 20.56° C | 73% | 1011.8 hPa | - | - | - | - |
| 1778059903 | 20° C | 85% | 1011.4 hPa | - | - | - | - |
| 1778058703 | 20° C | 81% | 1011.6 hPa | - | - | - | - |
* Rain since midnight (hover to see other rain measurements)
** Current wind speed in m/s (hover to see current wind gust speed)